Time;durP1;ratioP1;P1;durP2;ratioP2;P2;SDS_P1;SDS_P2;PMS_P1;PMS_P2;Temp;Humidity;BMP_temperature;BMP_pressure;BME280_temperature;BME280_humidity;BME280_pressure;Samples;Min_cycle;Max_cycle;Signal;HPM_P1;HPM_P2
2024/01/18 00:00:16;;;;;;;35.75;32.65;;;;;;;;;;5052777;28;20639;-77
2024/01/18 00:02:44;;;;;;;36.10;32.95;;;;;;;;;;5070280;28;20631;-77
2024/01/18 00:05:11;;;;;;;35.63;32.63;;;;;;;;;;5070812;28;20608;-75
2024/01/18 00:07:38;;;;;;;36.85;33.42;;;;;;;;;;5070305;28;20242;-76
2024/01/18 00:10:06;;;;;;;36.80;33.50;;;;;;;;;;5070562;28;20292;-77
2024/01/18 00:12:35;;;;;;;35.97;32.47;;;;;;;;;;5070792;28;20218;-78
2024/01/18 00:15:02;;;;;;;37.60;34.30;;;;;;;;;;5070705;28;20199;-75
2024/01/18 00:17:29;;;;;;;37.40;34.00;;;;;;;;;;5069878;28;20351;-75
2024/01/18 00:19:57;;;;;;;37.13;33.92;;;;;;;;;;5069624;28;20261;-75
2024/01/18 00:22:24;;;;;;;38.50;35.30;;;;;;;;;;5070948;28;20203;-76
2024/01/18 00:24:51;;;;;;;37.90;34.53;;;;;;;;;;5070492;28;20268;-77
2024/01/18 00:27:18;;;;;;;38.47;34.97;;;;;;;;;;5052743;28;20809;-76
2024/01/18 00:29:45;;;;;;;35.38;32.33;;;;;;;;;;5049522;28;20225;-76
2024/01/18 00:32:12;;;;;;;37.78;34.25;;;;;;;;;;5050620;28;20208;-76
2024/01/18 00:34:39;;;;;;;38.15;34.78;;;;;;;;;;5050113;28;20208;-76
2024/01/18 00:37:08;;;;;;;36.00;33.00;;;;;;;;;;5050291;28;20204;-76
2024/01/18 00:39:35;;;;;;;38.63;34.63;;;;;;;;;;5053279;28;20228;-76
2024/01/18 00:42:02;;;;;;;37.95;34.58;;;;;;;;;;5054571;28;20207;-75
2024/01/18 00:44:28;;;;;;;36.75;33.47;;;;;;;;;;5054502;28;20212;-77
2024/01/18 00:46:55;;;;;;;37.00;33.67;;;;;;;;;;5053482;28;20668;-76
2024/01/18 00:49:22;;;;;;;37.75;34.17;;;;;;;;;;5053439;28;20627;-77
2024/01/18 00:51:49;;;;;;;36.78;33.42;;;;;;;;;;5053738;28;20626;-75
2024/01/18 00:54:18;;;;;;;37.17;33.78;;;;;;;;;;5067682;28;20663;-77
2024/01/18 00:56:45;;;;;;;37.88;34.28;;;;;;;;;;5053456;28;20615;-76
2024/01/18 00:59:12;;;;;;;37.38;33.72;;;;;;;;;;5053389;28;20232;-75
2024/01/18 01:01:38;;;;;;;38.38;34.95;;;;;;;;;;5053946;28;20204;-77
2024/01/18 01:04:06;;;;;;;38.30;34.78;;;;;;;;;;5054261;28;20204;-76
2024/01/18 01:06:32;;;;;;;38.90;35.40;;;;;;;;;;5053394;28;20277;-77
2024/01/18 01:08:59;;;;;;;39.53;35.83;;;;;;;;;;5053680;28;20313;-77
2024/01/18 01:11:28;;;;;;;39.03;35.72;;;;;;;;;;5053043;28;20223;-76
2024/01/18 01:13:55;;;;;;;37.70;34.35;;;;;;;;;;5053925;28;20208;-77
2024/01/18 01:16:22;;;;;;;38.17;34.85;;;;;;;;;;5053038;28;20219;-76
2024/01/18 01:18:49;;;;;;;39.15;35.70;;;;;;;;;;5053590;28;20638;-75
2024/01/18 01:21:16;;;;;;;38.90;35.40;;;;;;;;;;5052910;28;20743;-77
2024/01/18 01:23:48;;;;;;;38.75;35.40;;;;;;;;;;5053564;28;20205;-76
2024/01/18 01:26:15;;;;;;;39.03;35.22;;;;;;;;;;5053152;28;20453;-77
2024/01/18 01:28:44;;;;;;;37.28;34.03;;;;;;;;;;5053096;28;20655;-76
2024/01/18 01:31:10;;;;;;;35.70;32.58;;;;;;;;;;5052651;28;20208;-76
2024/01/18 01:33:37;;;;;;;37.47;33.85;;;;;;;;;;5053253;28;20567;-77
2024/01/18 01:36:06;;;;;;;36.70;33.28;;;;;;;;;;5052719;28;20278;-75
2024/01/18 01:38:33;;;;;;;37.17;33.88;;;;;;;;;;5053057;28;20590;-76
2024/01/18 01:41:00;;;;;;;35.05;32.25;;;;;;;;;;5052439;28;20595;-76
2024/01/18 01:43:28;;;;;;;36.80;33.72;;;;;;;;;;5053193;28;20258;-75
2024/01/18 01:45:56;;;;;;;37.88;34.30;;;;;;;;;;5052872;28;20673;-76
2024/01/18 01:48:23;;;;;;;37.08;33.80;;;;;;;;;;5052191;28;20614;-76
2024/01/18 01:50:51;;;;;;;38.10;34.33;;;;;;;;;;5051962;28;20212;-76
2024/01/18 01:53:18;;;;;;;37.58;33.65;;;;;;;;;;5052682;28;20667;-76
2024/01/18 01:55:46;;;;;;;39.25;35.60;;;;;;;;;;5052521;28;20212;-76
2024/01/18 01:58:14;;;;;;;36.90;33.65;;;;;;;;;;5051828;28;20211;-76
2024/01/18 02:00:41;;;;;;;36.20;32.95;;;;;;;;;;5051994;28;20224;-76
2024/01/18 02:03:10;;;;;;;36.10;33.13;;;;;;;;;;5052472;28;20797;-77
2024/01/18 02:05:37;;;;;;;38.17;34.78;;;;;;;;;;5052995;28;20204;-76
2024/01/18 02:08:04;;;;;;;37.47;33.92;;;;;;;;;;5052245;28;20604;-76
2024/01/18 02:10:31;;;;;;;38.20;34.75;;;;;;;;;;5052402;28;20228;-76
2024/01/18 02:12:58;;;;;;;40.03;35.85;;;;;;;;;;5052285;28;20752;-76
2024/01/18 02:15:25;;;;;;;40.10;36.05;;;;;;;;;;5052506;28;20262;-76
2024/01/18 02:17:52;;;;;;;38.30;34.42;;;;;;;;;;5051637;28;20246;-76
2024/01/18 02:20:20;;;;;;;38.83;35.25;;;;;;;;;;5052228;28;20232;-75
2024/01/18 02:22:47;;;;;;;36.75;33.58;;;;;;;;;;5051668;28;20687;-76
2024/01/18 02:25:22;;;;;;;37.22;33.72;;;;;;;;;;5052407;28;20200;-76
2024/01/18 02:27:49;;;;;;;39.40;35.65;;;;;;;;;;5051814;28;20208;-76
2024/01/18 02:30:16;;;;;;;38.28;34.95;;;;;;;;;;5052074;28;20282;-76
2024/01/18 02:32:43;;;;;;;37.50;33.97;;;;;;;;;;5051346;28;20212;-75
2024/01/18 02:35:33;;;;;;;39.17;35.67;;;;;;;;;;5051988;28;20223;-75
2024/01/18 02:38:00;;;;;;;37.97;34.65;;;;;;;;;;5049229;28;20835;-75
2024/01/18 02:40:28;;;;;;;39.85;36.15;;;;;;;;;;5051960;28;20232;-76
2024/01/18 02:42:55;;;;;;;38.55;35.10;;;;;;;;;;5051289;28;20258;-76
2024/01/18 02:45:23;;;;;;;39.15;35.50;;;;;;;;;;5051422;28;20676;-77
2024/01/18 02:47:50;;;;;;;39.08;35.65;;;;;;;;;;5050913;28;20294;-75
2024/01/18 02:50:17;;;;;;;39.58;35.83;;;;;;;;;;5051352;28;20228;-76
2024/01/18 02:52:44;;;;;;;39.47;35.72;;;;;;;;;;5050798;28;20265;-77
2024/01/18 02:55:10;;;;;;;37.22;33.95;;;;;;;;;;5052317;28;20205;-76
2024/01/18 02:57:41;;;;;;;37.83;34.42;;;;;;;;;;5051020;28;20285;-75
2024/01/18 03:00:08;;;;;;;39.13;35.33;;;;;;;;;;5051165;28;20228;-78
2024/01/18 03:02:35;;;;;;;37.33;33.85;;;;;;;;;;5050665;28;20231;-76
2024/01/18 03:05:02;;;;;;;38.90;35.45;;;;;;;;;;5051441;28;20235;-76
2024/01/18 03:07:29;;;;;;;39.83;36.00;;;;;;;;;;5050181;28;20617;-76
2024/01/18 03:09:56;;;;;;;38.38;34.88;;;;;;;;;;5050358;28;20700;-75
2024/01/18 03:12:23;;;;;;;37.80;34.55;;;;;;;;;;5050608;28;20814;-77
2024/01/18 03:14:51;;;;;;;36.72;33.53;;;;;;;;;;5058990;28;20195;-75
2024/01/18 03:17:18;;;;;;;36.50;33.28;;;;;;;;;;5050110;28;20270;-75
2024/01/18 03:19:45;;;;;;;36.85;33.50;;;;;;;;;;5050611;28;20262;-76
2024/01/18 03:22:12;;;;;;;39.75;35.50;;;;;;;;;;5050481;28;20212;-76
2024/01/18 03:24:39;;;;;;;39.47;35.83;;;;;;;;;;5050404;28;20632;-76
2024/01/18 03:27:06;;;;;;;37.70;34.30;;;;;;;;;;5061573;28;20663;-76
2024/01/18 03:29:33;;;;;;;38.28;35.03;;;;;;;;;;5070059;28;20766;-77
2024/01/18 03:32:02;;;;;;;41.55;37.35;;;;;;;;;;5070792;28;20210;-75
2024/01/18 03:34:29;;;;;;;49.80;38.92;;;;;;;;;;5069918;28;20253;-77
2024/01/18 03:36:56;;;;;;;46.60;38.30;;;;;;;;;;5051074;28;20208;-75
2024/01/18 03:39:23;;;;;;;39.00;35.10;;;;;;;;;;5049974;28;20220;-76
2024/01/18 03:41:50;;;;;;;43.28;37.20;;;;;;;;;;5050290;28;20739;-77
2024/01/18 03:44:16;;;;;;;42.70;35.20;;;;;;;;;;5049704;28;20611;-76
2024/01/18 03:46:43;;;;;;;40.95;36.00;;;;;;;;;;5049871;28;20560;-77
2024/01/18 03:49:12;;;;;;;40.42;36.10;;;;;;;;;;5050502;28;20627;-77
2024/01/18 03:51:39;;;;;;;40.80;36.40;;;;;;;;;;5050449;28;20223;-77
2024/01/18 03:54:06;;;;;;;41.65;37.33;;;;;;;;;;5050112;28;20209;-76
2024/01/18 03:56:33;;;;;;;41.17;36.90;;;;;;;;;;5050017;28;20208;-76
2024/01/18 03:59:01;;;;;;;39.53;35.50;;;;;;;;;;5050149;28;20270;-76
2024/01/18 04:01:31;;;;;;;38.90;34.78;;;;;;;;;;5049910;28;20274;-76
2024/01/18 04:03:58;;;;;;;38.53;34.63;;;;;;;;;;5049870;28;20216;-77
2024/01/18 04:06:26;;;;;;;42.35;37.65;;;;;;;;;;5049849;28;20204;-75
2024/01/18 04:08:53;;;;;;;37.85;34.15;;;;;;;;;;5050165;28;20228;-76
2024/01/18 04:11:20;;;;;;;39.53;35.83;;;;;;;;;;5050340;28;20200;-76
2024/01/18 04:13:48;;;;;;;39.85;35.83;;;;;;;;;;5049475;28;20216;-75
2024/01/18 04:16:15;;;;;;;36.97;33.45;;;;;;;;;;5049738;28;20620;-77
2024/01/18 04:18:42;;;;;;;37.13;33.47;;;;;;;;;;5050199;28;20227;-77
2024/01/18 04:21:09;;;;;;;37.75;34.38;;;;;;;;;;5050150;28;20224;-74
2024/01/18 04:23:37;;;;;;;39.60;35.58;;;;;;;;;;5049431;28;20598;-76
2024/01/18 04:26:04;;;;;;;37.40;33.60;;;;;;;;;;5049553;28;20210;-77
2024/01/18 04:28:31;;;;;;;38.72;35.10;;;;;;;;;;5049736;28;20227;-77
2024/01/18 04:30:58;;;;;;;41.22;37.05;;;;;;;;;;5049945;28;20697;-76
2024/01/18 04:33:25;;;;;;;41.67;37.47;;;;;;;;;;5050218;28;20204;-76
2024/01/18 04:35:52;;;;;;;41.55;37.45;;;;;;;;;;5049311;28;20216;-77
2024/01/18 04:38:19;;;;;;;37.15;33.85;;;;;;;;;;5049441;28;20286;-76
2024/01/18 04:40:47;;;;;;;38.85;35.10;;;;;;;;;;5050043;28;20224;-75
2024/01/18 04:43:15;;;;;;;37.40;33.70;;;;;;;;;;5049859;28;20208;-76
2024/01/18 04:45:42;;;;;;;37.47;34.10;;;;;;;;;;5049293;28;20211;-76
2024/01/18 04:48:09;;;;;;;41.45;34.85;;;;;;;;;;5049080;28;20814;-77
2024/01/18 04:50:36;;;;;;;37.50;34.03;;;;;;;;;;5050123;28;20328;-77
2024/01/18 04:53:03;;;;;;;37.00;33.53;;;;;;;;;;5051580;28;20255;-76
2024/01/18 04:55:31;;;;;;;36.80;33.53;;;;;;;;;;5069031;28;20211;-77
2024/01/18 04:57:59;;;;;;;38.10;34.38;;;;;;;;;;5069636;28;20265;-78
2024/01/18 05:00:26;;;;;;;39.65;35.85;;;;;;;;;;5069850;28;20273;-76
2024/01/18 05:02:53;;;;;;;36.95;33.45;;;;;;;;;;5070039;28;20207;-77
2024/01/18 05:05:20;;;;;;;38.20;34.70;;;;;;;;;;5069394;28;20300;-78
2024/01/18 05:07:47;;;;;;;37.38;33.90;;;;;;;;;;5069161;28;20638;-76
2024/01/18 05:10:14;;;;;;;37.90;34.40;;;;;;;;;;5068754;28;20238;-77
2024/01/18 05:12:41;;;;;;;39.95;36.28;;;;;;;;;;5069114;28;20207;-77
2024/01/18 05:15:11;;;;;;;36.78;33.42;;;;;;;;;;5068789;28;20212;-77
2024/01/18 05:17:38;;;;;;;38.35;34.70;;;;;;;;;;5068103;28;20216;-78
2024/01/18 05:20:05;;;;;;;38.75;35.00;;;;;;;;;;5069185;28;20232;-77
2024/01/18 05:22:32;;;;;;;37.50;33.95;;;;;;;;;;5069688;28;20204;-76
2024/01/18 05:25:00;;;;;;;38.65;35.28;;;;;;;;;;5071424;28;20215;-77
2024/01/18 05:27:29;;;;;;;38.22;34.72;;;;;;;;;;5053368;28;20742;-76
2024/01/18 05:29:56;;;;;;;38.83;35.13;;;;;;;;;;5053109;28;20317;-76
2024/01/18 05:32:25;;;;;;;37.03;33.63;;;;;;;;;;5052835;28;20690;-77
2024/01/18 05:34:52;;;;;;;37.50;34.08;;;;;;;;;;5053284;28;20603;-76
2024/01/18 05:37:22;;;;;;;38.17;34.58;;;;;;;;;;5051806;28;20216;-75
2024/01/18 05:39:50;;;;;;;38.17;34.67;;;;;;;;;;5053024;28;20323;-78
2024/01/18 05:42:18;;;;;;;35.38;32.40;;;;;;;;;;5052985;28;20299;-77
2024/01/18 05:44:45;;;;;;;38.90;35.05;;;;;;;;;;5053116;28;20210;-77
2024/01/18 05:47:12;;;;;;;38.05;34.70;;;;;;;;;;5051735;28;20256;-77
2024/01/18 05:49:40;;;;;;;38.22;34.60;;;;;;;;;;5052511;28;20226;-76
2024/01/18 05:52:08;;;;;;;38.47;34.92;;;;;;;;;;5052814;28;20602;-77
2024/01/18 05:54:35;;;;;;;37.55;34.20;;;;;;;;;;5052859;28;20258;-76
2024/01/18 05:57:02;;;;;;;37.55;34.30;;;;;;;;;;5051553;28;20216;-76
2024/01/18 05:59:29;;;;;;;39.17;35.42;;;;;;;;;;5052343;28;20688;-77
2024/01/18 06:01:56;;;;;;;38.03;34.90;;;;;;;;;;5052465;28;20277;-77
2024/01/18 06:04:24;;;;;;;39.78;35.95;;;;;;;;;;5052221;28;21026;-76
2024/01/18 06:06:52;;;;;;;39.17;35.40;;;;;;;;;;5051558;28;20211;-77
2024/01/18 06:09:19;;;;;;;39.28;35.30;;;;;;;;;;5052247;28;20223;-76
2024/01/18 06:11:46;;;;;;;38.13;34.42;;;;;;;;;;5052191;28;20622;-78
2024/01/18 06:14:15;;;;;;;40.33;36.33;;;;;;;;;;5052328;28;20211;-77
2024/01/18 06:16:42;;;;;;;40.30;36.33;;;;;;;;;;5051331;28;20216;-79
2024/01/18 06:19:11;;;;;;;38.83;35.15;;;;;;;;;;5053527;28;20228;-79
2024/01/18 06:21:38;;;;;;;37.60;33.90;;;;;;;;;;5052556;28;21076;-79
2024/01/18 06:24:07;;;;;;;38.88;35.58;;;;;;;;;;5052433;28;20204;-76
2024/01/18 06:26:34;;;;;;;39.90;36.00;;;;;;;;;;5057816;28;20219;-76
2024/01/18 06:29:03;;;;;;;39.08;35.42;;;;;;;;;;5072297;28;20227;-76
2024/01/18 06:31:29;;;;;;;38.45;35.05;;;;;;;;;;5072475;28;20200;-77
2024/01/18 06:33:57;;;;;;;37.67;34.42;;;;;;;;;;5059740;28;20742;-76
2024/01/18 06:36:24;;;;;;;39.30;35.38;;;;;;;;;;5051378;28;20996;-76
2024/01/18 06:38:51;;;;;;;37.13;33.72;;;;;;;;;;5052186;28;20228;-77
2024/01/18 06:41:20;;;;;;;39.35;35.42;;;;;;;;;;5052293;28;20270;-78
2024/01/18 06:43:48;;;;;;;39.70;35.88;;;;;;;;;;5051779;28;20742;-78
2024/01/18 06:46:16;;;;;;;42.10;38.03;;;;;;;;;;5051435;28;20295;-77
2024/01/18 06:48:45;;;;;;;40.53;36.58;;;;;;;;;;5051878;28;20325;-78
2024/01/18 06:51:14;;;;;;;38.47;34.65;;;;;;;;;;5051666;28;20201;-77
2024/01/18 06:53:42;;;;;;;38.38;34.53;;;;;;;;;;5053253;28;20615;-76
2024/01/18 06:56:11;;;;;;;39.65;35.97;;;;;;;;;;5051443;28;20212;-78
2024/01/18 06:58:40;;;;;;;37.88;34.38;;;;;;;;;;5051012;28;20273;-77
2024/01/18 07:01:07;;;;;;;38.50;35.00;;;;;;;;;;5064954;28;20219;-77
2024/01/18 07:03:35;;;;;;;39.42;35.40;;;;;;;;;;5071522;28;20208;-77
2024/01/18 07:06:02;;;;;;;40.05;36.30;;;;;;;;;;5071327;28;20207;-77
2024/01/18 07:08:30;;;;;;;40.10;36.08;;;;;;;;;;5070854;28;20243;-76
2024/01/18 07:10:57;;;;;;;38.85;35.22;;;;;;;;;;5071498;28;20602;-79
2024/01/18 07:13:24;;;;;;;41.45;37.22;;;;;;;;;;5051821;28;20303;-80
2024/01/18 07:15:53;;;;;;;40.65;36.50;;;;;;;;;;5070463;28;20577;-76
2024/01/18 07:18:20;;;;;;;40.63;36.83;;;;;;;;;;5070771;28;20257;-75
2024/01/18 07:20:47;;;;;;;41.75;37.60;;;;;;;;;;5057445;28;20220;-76
2024/01/18 07:23:14;;;;;;;40.90;36.65;;;;;;;;;;5051480;28;20208;-75
2024/01/18 07:25:41;;;;;;;39.45;35.58;;;;;;;;;;5052408;28;20204;-76
2024/01/18 07:28:08;;;;;;;43.60;39.38;;;;;;;;;;5055943;28;20208;-78
2024/01/18 07:30:35;;;;;;;41.60;37.55;;;;;;;;;;5069137;28;20697;-76
2024/01/18 07:33:03;;;;;;;38.63;34.80;;;;;;;;;;5067015;28;20248;-77
2024/01/18 07:35:30;;;;;;;40.25;36.45;;;;;;;;;;5051101;28;20204;-77
2024/01/18 07:37:58;;;;;;;42.47;37.90;;;;;;;;;;5050412;28;20207;-77
2024/01/18 07:40:25;;;;;;;42.05;37.85;;;;;;;;;;5050627;28;20717;-77
2024/01/18 07:42:52;;;;;;;44.22;39.65;;;;;;;;;;5050189;28;20224;-75
2024/01/18 07:45:20;;;;;;;45.83;36.65;;;;;;;;;;5049983;28;20282;-77
2024/01/18 07:47:47;;;;;;;39.72;35.80;;;;;;;;;;5048934;28;20586;-77
2024/01/18 07:50:16;;;;;;;39.85;36.25;;;;;;;;;;5049815;28;20231;-76
2024/01/18 07:52:43;;;;;;;41.95;37.65;;;;;;;;;;5050661;28;20334;-77
2024/01/18 07:55:10;;;;;;;43.97;39.60;;;;;;;;;;5069619;28;20269;-76
2024/01/18 07:57:37;;;;;;;42.72;38.47;;;;;;;;;;5070486;28;20203;-77
2024/01/18 08:00:04;;;;;;;38.42;34.80;;;;;;;;;;5068227;28;20235;-76
2024/01/18 08:02:31;;;;;;;39.20;35.28;;;;;;;;;;5050320;28;20219;-78
2024/01/18 08:04:58;;;;;;;41.25;36.08;;;;;;;;;;5050956;28;20208;-76
2024/01/18 08:07:26;;;;;;;44.95;40.42;;;;;;;;;;5050174;28;20265;-77
2024/01/18 08:09:53;;;;;;;42.90;39.05;;;;;;;;;;5049632;28;20239;-76
2024/01/18 08:12:20;;;;;;;39.28;35.33;;;;;;;;;;5050264;28;20739;-77
2024/01/18 08:14:48;;;;;;;42.50;37.75;;;;;;;;;;5050074;28;20257;-77
2024/01/18 08:17:15;;;;;;;43.10;38.83;;;;;;;;;;5049670;28;20212;-76
2024/01/18 08:19:42;;;;;;;39.78;35.85;;;;;;;;;;5049714;28;20236;-77
2024/01/18 08:22:11;;;;;;;43.38;38.80;;;;;;;;;;5050196;28;20699;-77
2024/01/18 08:24:41;;;;;;;40.10;36.33;;;;;;;;;;5050326;28;20215;-77
2024/01/18 08:27:08;;;;;;;42.17;37.92;;;;;;;;;;5049606;28;20632;-76
2024/01/18 08:29:37;;;;;;;40.40;36.40;;;;;;;;;;5049173;28;20232;-79
2024/01/18 08:32:04;;;;;;;41.83;38.00;;;;;;;;;;5049530;28;20211;-75
2024/01/18 08:34:31;;;;;;;41.22;37.00;;;;;;;;;;5050147;28;20215;-75
2024/01/18 08:36:58;;;;;;;39.42;35.90;;;;;;;;;;5049645;28;20231;-77
2024/01/18 08:39:25;;;;;;;40.17;36.00;;;;;;;;;;5049189;28;20310;-74
2024/01/18 08:41:56;;;;;;;39.30;35.35;;;;;;;;;;5050438;28;20265;-77
2024/01/18 08:44:23;;;;;;;39.97;36.17;;;;;;;;;;5049850;28;20200;-78
2024/01/18 08:46:50;;;;;;;38.45;34.92;;;;;;;;;;5048643;28;20293;-77
2024/01/18 08:49:18;;;;;;;39.50;35.70;;;;;;;;;;5049870;28;20282;-77
2024/01/18 08:51:46;;;;;;;39.50;35.70;;;;;;;;;;5050128;28;20204;-77
2024/01/18 08:54:13;;;;;;;42.35;37.85;;;;;;;;;;5050125;28;20210;-77
2024/01/18 08:56:39;;;;;;;42.65;38.40;;;;;;;;;;5049483;28;20200;-77
2024/01/18 08:59:08;;;;;;;41.00;36.78;;;;;;;;;;5051251;28;20277;-77
2024/01/18 09:01:35;;;;;;;42.05;37.75;;;;;;;;;;5053351;28;20216;-77
2024/01/18 09:04:02;;;;;;;44.33;39.83;;;;;;;;;;5054076;28;20282;-76
2024/01/18 09:06:29;;;;;;;45.03;40.20;;;;;;;;;;5053473;28;20208;-76
2024/01/18 09:08:56;;;;;;;42.67;38.42;;;;;;;;;;5054037;28;20224;-78
2024/01/18 09:11:23;;;;;;;42.15;37.85;;;;;;;;;;5053228;28;20668;-76
2024/01/18 09:13:50;;;;;;;45.08;40.42;;;;;;;;;;5053684;28;20212;-76
2024/01/18 09:16:19;;;;;;;39.95;35.83;;;;;;;;;;5053073;28;20220;-77
2024/01/18 09:18:46;;;;;;;43.85;39.45;;;;;;;;;;5073008;28;20220;-77
2024/01/18 09:21:13;;;;;;;45.67;41.03;;;;;;;;;;5073140;28;20260;-78
2024/01/18 09:23:40;;;;;;;45.63;40.85;;;;;;;;;;5073825;28;20257;-76
2024/01/18 09:26:07;;;;;;;44.78;40.10;;;;;;;;;;5073295;28;20231;-77
2024/01/18 09:28:34;;;;;;;44.63;40.13;;;;;;;;;;5073664;28;20227;-77
2024/01/18 09:31:01;;;;;;;46.25;41.45;;;;;;;;;;5073290;28;20280;-76
2024/01/18 09:33:29;;;;;;;44.20;39.85;;;;;;;;;;5073689;28;20257;-78
2024/01/18 09:35:56;;;;;;;45.60;41.00;;;;;;;;;;5073110;28;20203;-77
2024/01/18 09:38:24;;;;;;;47.67;42.22;;;;;;;;;;5072753;28;20208;-77
2024/01/18 09:40:53;;;;;;;46.30;41.45;;;;;;;;;;5072826;28;20228;-77
2024/01/18 09:43:21;;;;;;;48.28;42.97;;;;;;;;;;5073517;28;20276;-76
2024/01/18 09:45:49;;;;;;;49.58;44.38;;;;;;;;;;5060058;28;20212;-77
2024/01/18 09:48:16;;;;;;;49.67;44.28;;;;;;;;;;5052831;28;20231;-77
2024/01/18 09:50:45;;;;;;;47.80;42.90;;;;;;;;;;5052972;28;20204;-77
2024/01/18 09:53:13;;;;;;;48.03;43.25;;;;;;;;;;5053333;28;20208;-77
2024/01/18 09:55:40;;;;;;;50.75;43.70;;;;;;;;;;5053370;28;20208;-77
2024/01/18 09:58:10;;;;;;;48.83;44.00;;;;;;;;;;5052717;28;20208;-76
2024/01/18 10:00:41;;;;;;;49.10;44.00;;;;;;;;;;5052542;28;20238;-77
2024/01/18 10:03:07;;;;;;;50.05;44.75;;;;;;;;;;5053041;28;20216;-77
2024/01/18 10:05:34;;;;;;;50.85;45.63;;;;;;;;;;5053234;28;20230;-76
2024/01/18 10:08:03;;;;;;;50.03;44.72;;;;;;;;;;5052752;28;20216;-76
2024/01/18 10:10:30;;;;;;;52.22;46.03;;;;;;;;;;5052668;28;20228;-78
2024/01/18 10:12:58;;;;;;;47.28;42.55;;;;;;;;;;5052511;28;20609;-77
2024/01/18 10:15:32;;;;;;;47.58;42.28;;;;;;;;;;5052835;28;20216;-77
2024/01/18 10:18:00;;;;;;;48.35;43.53;;;;;;;;;;5052119;28;20219;-76
2024/01/18 10:20:27;;;;;;;48.17;43.00;;;;;;;;;;5052335;28;20711;-78
2024/01/18 10:22:55;;;;;;;48.00;43.03;;;;;;;;;;5051987;28;20224;-77
2024/01/18 10:25:23;;;;;;;49.55;43.45;;;;;;;;;;5052733;28;20208;-77
2024/01/18 10:27:52;;;;;;;47.80;42.58;;;;;;;;;;5052154;28;20208;-76
2024/01/18 10:30:20;;;;;;;47.53;42.40;;;;;;;;;;5052502;28;20228;-77
2024/01/18 10:32:47;;;;;;;47.53;43.08;;;;;;;;;;5052174;28;20215;-76
2024/01/18 10:35:25;;;;;;;50.03;44.92;;;;;;;;;;5052498;28;20269;-76
2024/01/18 10:38:02;;;;;;;49.78;43.80;;;;;;;;;;5060121;28;20199;-77
2024/01/18 10:40:31;;;;;;;47.90;42.75;;;;;;;;;;5072280;28;20262;-77
2024/01/18 10:42:59;;;;;;;41.95;38.05;;;;;;;;;;5071691;28;20226;-77
2024/01/18 10:45:28;;;;;;;41.47;37.08;;;;;;;;;;5072268;28;20803;-77
2024/01/18 10:47:56;;;;;;;48.30;43.50;;;;;;;;;;5071975;28;20215;-77
2024/01/18 10:50:23;;;;;;;44.22;40.20;;;;;;;;;;5072149;28;20230;-77
2024/01/18 10:52:50;;;;;;;45.15;40.75;;;;;;;;;;5071720;28;20204;-77
2024/01/18 10:55:17;;;;;;;47.95;43.15;;;;;;;;;;5072154;28;20211;-78
2024/01/18 10:57:45;;;;;;;46.58;41.90;;;;;;;;;;5071783;28;20211;-77
2024/01/18 11:00:15;;;;;;;48.00;43.50;;;;;;;;;;5071723;28;20318;-77
2024/01/18 11:02:44;;;;;;;44.22;38.58;;;;;;;;;;5071502;28;20235;-77
2024/01/18 11:05:13;;;;;;;46.70;41.58;;;;;;;;;;5071966;28;20289;-78
2024/01/18 11:07:41;;;;;;;43.35;39.15;;;;;;;;;;5071270;28;20214;-77
2024/01/18 11:10:10;;;;;;;42.40;38.30;;;;;;;;;;5071742;28;20231;-77
2024/01/18 11:12:38;;;;;;;43.85;39.60;;;;;;;;;;5063001;28;20215;-74
2024/01/18 11:15:07;;;;;;;46.70;41.88;;;;;;;;;;5066423;28;20929;-77
2024/01/18 11:17:35;;;;;;;45.53;40.22;;;;;;;;;;5069766;28;20219;-77
2024/01/18 11:20:04;;;;;;;41.20;36.92;;;;;;;;;;5071201;28;20231;-75
2024/01/18 11:22:31;;;;;;;43.08;38.88;;;;;;;;;;5069888;28;20239;-75
2024/01/18 11:25:03;;;;;;;43.50;39.25;;;;;;;;;;5071219;28;20207;-75
2024/01/18 11:27:35;;;;;;;48.22;43.60;;;;;;;;;;5071061;28;20226;-77
2024/01/18 11:30:03;;;;;;;40.90;36.97;;;;;;;;;;5071473;28;20231;-77
2024/01/18 11:32:33;;;;;;;47.67;39.55;;;;;;;;;;5071054;28;20664;-77
2024/01/18 11:35:08;;;;;;;42.17;38.28;;;;;;;;;;5070987;28;20211;-76
2024/01/18 11:37:35;;;;;;;39.58;35.75;;;;;;;;;;5070559;28;20203;-77
2024/01/18 11:40:05;;;;;;;42.85;38.50;;;;;;;;;;5071029;28;20227;-77
2024/01/18 11:42:33;;;;;;;39.90;36.20;;;;;;;;;;5071812;28;20322;-76
2024/01/18 11:45:01;;;;;;;42.63;38.63;;;;;;;;;;5070416;28;20753;-77
2024/01/18 11:47:29;;;;;;;40.05;36.38;;;;;;;;;;5070750;28;20237;-76
2024/01/18 11:49:58;;;;;;;44.22;40.08;;;;;;;;;;5070928;28;20711;-77
2024/01/18 11:52:25;;;;;;;41.50;37.40;;;;;;;;;;5070986;28;20602;-77
2024/01/18 11:54:55;;;;;;;28.60;26.20;;;;;;;;;;5050565;28;20228;-80
2024/01/18 11:57:23;;;;;;;39.67;36.17;;;;;;;;;;5049932;28;20641;-77
2024/01/18 11:59:50;;;;;;;40.53;36.55;;;;;;;;;;5050542;28;20720;-78
2024/01/18 12:02:17;;;;;;;43.38;39.08;;;;;;;;;;5054877;28;20254;-79
2024/01/18 12:04:45;;;;;;;40.55;37.03;;;;;;;;;;5057357;28;20211;-74
2024/01/18 12:07:13;;;;;;;38.60;34.78;;;;;;;;;;5071324;28;20207;-79
2024/01/18 12:09:41;;;;;;;31.20;28.77;;;;;;;;;;5059005;28;20619;-79
2024/01/18 12:12:09;;;;;;;36.13;32.92;;;;;;;;;;5050754;28;20628;-80
2024/01/18 12:14:40;;;;;;;40.10;36.42;;;;;;;;;;5050240;28;20238;-77
2024/01/18 12:17:08;;;;;;;37.05;33.63;;;;;;;;;;5050021;28;20266;-78
2024/01/18 12:19:35;;;;;;;39.53;35.65;;;;;;;;;;5050741;28;20231;-78
2024/01/18 12:22:03;;;;;;;38.90;35.25;;;;;;;;;;5050887;28;20200;-77
2024/01/18 12:24:32;;;;;;;37.13;33.63;;;;;;;;;;5050195;28;20734;-80
2024/01/18 12:26:59;;;;;;;34.63;31.42;;;;;;;;;;5054463;28;20215;-80
2024/01/18 12:29:26;;;;;;;33.40;30.42;;;;;;;;;;5053840;28;20281;-78
2024/01/18 12:31:54;;;;;;;34.10;30.75;;;;;;;;;;5050575;28;20208;-79
2024/01/18 12:34:22;;;;;;;34.35;31.50;;;;;;;;;;5052308;28;20610;-77
2024/01/18 12:36:49;;;;;;;35.00;31.58;;;;;;;;;;5052995;28;20196;-79
2024/01/18 12:39:17;;;;;;;37.33;34.03;;;;;;;;;;5053664;28;20231;-79
2024/01/18 12:41:45;;;;;;;33.47;30.63;;;;;;;;;;5054206;28;20250;-80
2024/01/18 12:44:13;;;;;;;32.10;29.70;;;;;;;;;;5054515;28;20227;-79
2024/01/18 12:46:41;;;;;;;38.28;34.97;;;;;;;;;;5054272;28;20533;-77
2024/01/18 12:49:08;;;;;;;35.85;32.55;;;;;;;;;;5054844;28;20231;-78
2024/01/18 12:51:36;;;;;;;34.65;31.77;;;;;;;;;;5055518;28;20200;-78
2024/01/18 12:54:03;;;;;;;31.35;28.65;;;;;;;;;;5055226;28;20660;-78
2024/01/18 12:56:31;;;;;;;33.95;30.88;;;;;;;;;;5053819;28;20263;-79
2024/01/18 12:58:59;;;;;;;30.95;28.13;;;;;;;;;;5054521;28;20286;-78
2024/01/18 13:01:27;;;;;;;31.77;28.88;;;;;;;;;;5055230;28;20231;-79
2024/01/18 13:04:09;;;;;;;31.77;28.88;;;;;;;;;;5055985;28;20224;-79
2024/01/18 13:06:36;;;;;;;27.23;25.42;;;;;;;;;;5053798;28;20567;-80
2024/01/18 13:09:04;;;;;;;29.40;27.20;;;;;;;;;;5054420;28;20231;-79
2024/01/18 13:11:32;;;;;;;28.38;26.33;;;;;;;;;;5054247;28;20205;-78
2024/01/18 13:14:01;;;;;;;29.90;27.50;;;;;;;;;;5053077;28;20210;-79
2024/01/18 13:16:28;;;;;;;30.90;28.60;;;;;;;;;;5052367;28;20216;-79
2024/01/18 13:19:00;;;;;;;29.55;27.33;;;;;;;;;;5053117;28;20239;-78
2024/01/18 13:21:27;;;;;;;29.27;26.67;;;;;;;;;;5054160;28;20196;-77
2024/01/18 13:23:53;;;;;;;30.15;28.08;;;;;;;;;;5053936;28;20232;-78
2024/01/18 13:26:21;;;;;;;28.70;26.63;;;;;;;;;;5053016;28;20885;-78
2024/01/18 13:28:48;;;;;;;30.77;28.17;;;;;;;;;;5053832;28;20228;-79
2024/01/18 13:31:16;;;;;;;26.15;24.25;;;;;;;;;;5054340;28;20211;-79
2024/01/18 13:33:43;;;;;;;29.10;26.65;;;;;;;;;;5054288;28;20610;-78
2024/01/18 13:36:10;;;;;;;28.27;25.67;;;;;;;;;;5053341;28;20212;-78
2024/01/18 13:38:38;;;;;;;27.30;24.90;;;;;;;;;;5054193;28;20224;-79
2024/01/18 13:41:05;;;;;;;27.40;25.42;;;;;;;;;;5053964;28;20200;-79
2024/01/18 13:43:32;;;;;;;23.50;22.10;;;;;;;;;;5053708;28;20224;-78
2024/01/18 13:46:00;;;;;;;26.50;24.80;;;;;;;;;;5051794;28;20215;-79
2024/01/18 13:48:29;;;;;;;25.48;23.85;;;;;;;;;;5052036;28;20668;-78
2024/01/18 13:50:57;;;;;;;25.88;24.08;;;;;;;;;;5055018;28;20208;-78
2024/01/18 13:53:25;;;;;;;24.63;23.05;;;;;;;;;;5052469;28;20204;-79
2024/01/18 13:55:53;;;;;;;26.13;24.30;;;;;;;;;;5052114;28;20214;-78
2024/01/18 13:58:20;;;;;;;22.13;20.90;;;;;;;;;;5052089;28;20208;-78
2024/01/18 14:00:47;;;;;;;26.92;24.85;;;;;;;;;;5052826;28;20649;-78
2024/01/18 14:03:14;;;;;;;24.17;22.45;;;;;;;;;;5053091;28;20236;-81
2024/01/18 14:05:43;;;;;;;22.65;21.25;;;;;;;;;;5053201;28;20235;-79
2024/01/18 14:08:10;;;;;;;22.00;20.63;;;;;;;;;;5052273;28;20548;-79
2024/01/18 14:10:38;;;;;;;22.33;20.92;;;;;;;;;;5053010;28;20262;-79
2024/01/18 14:13:06;;;;;;;22.02;20.65;;;;;;;;;;5053039;28;20193;-77
2024/01/18 14:15:33;;;;;;;21.40;20.10;;;;;;;;;;5052545;28;20665;-78
2024/01/18 14:18:00;;;;;;;21.60;20.05;;;;;;;;;;5052255;28;20216;-78